Terminal Aerodrome Forecast
Issued by NWS Huntsville, AL

Home | Current Version | Previous Version | Text Only | Print | Product List | Glossary On
Versions: 1 2 3 4 5 6 7 8 9 10 11 12 13 14 15 16 17 18 19
000
FTUS44 KHUN 240711 AAA
TAFHSV
TAF AMD
KHSV 240711Z 2407/2506 24005KT P6SM VCSH OVC008
      TEMPO 2408/2412 5SM BR BKN010
     FM241500 33004KT P6SM SCT030 BKN250
     FM242100 35007KT P6SM SCT250=

USA.gov is the U.S. government's official web portal to all federal, state and local government web resources and services.